Terminal Aerodrome Forecast
Issued by NWS

Home | Current Version | Previous Version | Text Only | Print | Product List | Glossary On
Versions: 1 2 3 4 5 6 7 8 9 10 11 12
000
FTUS46 KOTX 300539
TAFPUW
TAF
KPUW 300539Z 3006/3106 00000KT P6SM SKC
     FM301200 09012KT P6SM SKC
     FM301800 12006KT P6SM FEW250
     FM310400 23013G23KT P6SM FEW150 BKN200=

USA.gov is the U.S. government's official web portal to all federal, state and local government web resources and services.